createdAt,value
2023-04-17T00:02:03.528Z,9.80
2023-04-17T00:07:07.869Z,10.10
2023-04-17T00:12:11.036Z,7.70
2023-04-17T00:17:14.123Z,11.40
2023-04-17T00:22:17.336Z,11.00
2023-04-17T00:27:20.745Z,9.60
2023-04-17T00:32:24.089Z,9.70
2023-04-17T00:37:27.164Z,9.10
2023-04-17T00:42:30.166Z,8.20
2023-04-17T00:47:33.642Z,9.90
2023-04-17T00:52:36.788Z,10.90
2023-04-17T00:57:42.389Z,10.00
2023-04-17T01:02:47.033Z,12.40
2023-04-17T01:07:50.505Z,10.80
2023-04-17T01:13:08.785Z,10.30
2023-04-17T01:18:12.610Z,10.50
2023-04-17T01:23:16.111Z,8.40
2023-04-17T01:28:19.256Z,13.30
2023-04-17T01:33:22.426Z,12.10
2023-04-17T01:38:25.739Z,11.70
2023-04-17T01:43:29.153Z,11.10
2023-04-17T01:48:32.885Z,10.10
2023-04-17T01:53:39.355Z,9.50
2023-04-17T01:58:43.210Z,17.00
2023-04-17T02:03:46.797Z,11.90
2023-04-17T02:08:50.035Z,12.60
2023-04-17T02:13:53.814Z,11.60
2023-04-17T02:18:56.826Z,11.10
2023-04-17T02:23:59.985Z,10.70
2023-04-17T02:29:03.147Z,10.40
2023-04-17T02:34:06.248Z,13.30
2023-04-17T02:39:09.494Z,10.30
2023-04-17T02:44:18.172Z,10.50
2023-04-17T02:54:24.823Z,9.70
2023-04-17T02:59:28.249Z,9.60
2023-04-17T03:04:34.636Z,10.30
2023-04-17T03:09:39.162Z,15.40
2023-04-17T03:14:44.071Z,14.40
2023-04-17T03:19:47.525Z,15.10
2023-04-17T03:24:50.641Z,13.00
2023-04-17T03:29:56.589Z,12.30
2023-04-17T03:34:59.827Z,11.30
2023-04-17T03:40:04.153Z,11.70
2023-04-17T03:45:08.689Z,12.30
2023-04-17T03:50:11.802Z,10.70
2023-04-17T03:55:15.126Z,12.10
2023-04-17T04:00:19.191Z,9.10
2023-04-17T04:05:22.281Z,11.80
2023-04-17T04:10:25.366Z,9.80
2023-04-17T04:15:28.448Z,9.00
2023-04-17T04:20:32.165Z,15.30
2023-04-17T04:25:35.374Z,12.10
2023-04-17T04:30:38.959Z,11.60
2023-04-17T04:35:42.117Z,9.30
2023-04-17T04:40:52.710Z,8.80
2023-04-17T04:45:56.509Z,8.50
2023-04-17T04:50:59.667Z,11.40
2023-04-17T04:56:02.832Z,10.40
2023-04-17T05:01:07.080Z,10.70
2023-04-17T05:06:11.461Z,8.80
2023-04-17T05:11:17.942Z,9.80
2023-04-17T05:16:23.367Z,5.60
2023-04-17T05:21:28.781Z,6.50
2023-04-17T05:26:33.658Z,5.50
2023-04-17T05:31:36.914Z,6.40
2023-04-17T05:36:40.074Z,6.10
2023-04-17T05:41:43.176Z,8.10
2023-04-17T05:46:46.478Z,5.30
2023-04-17T05:51:49.794Z,4.20
2023-04-17T05:56:53.414Z,5.70
2023-04-17T06:01:56.498Z,5.70
2023-04-17T06:06:59.737Z,4.90
2023-04-17T06:12:04.269Z,5.30
2023-04-17T06:17:07.466Z,5.00
2023-04-17T06:22:10.895Z,4.60
2023-04-17T06:27:14.312Z,4.40
2023-04-17T06:32:17.317Z,4.10
2023-04-17T06:37:20.623Z,4.60
2023-04-17T06:42:23.720Z,7.10
2023-04-17T06:47:26.838Z,4.10
2023-04-17T06:52:30.046Z,4.00
2023-04-17T06:57:34.208Z,4.80
2023-04-17T07:02:37.381Z,3.60
2023-04-17T07:07:41.815Z,5.40
2023-04-17T07:12:45.676Z,4.80
2023-04-17T07:17:48.817Z,3.70
2023-04-17T07:22:52.068Z,4.30
2023-04-17T07:27:56.219Z,5.70
2023-04-17T07:32:59.659Z,5.40
2023-04-17T07:38:04.393Z,4.90
2023-04-17T07:43:07.456Z,4.20
2023-04-17T07:48:11.298Z,4.50
2023-04-17T07:53:14.889Z,3.90
2023-04-17T07:58:18.233Z,5.90
2023-04-17T08:03:24.686Z,4.20
2023-04-17T08:08:28.130Z,3.50
2023-04-17T08:13:32.542Z,5.60
2023-04-17T08:18:37.796Z,4.80
2023-04-17T08:23:42.143Z,6.10
2023-04-17T08:28:46.073Z,4.20
2023-04-17T08:33:51.262Z,4.50
2023-04-17T08:38:56.802Z,5.70
2023-04-17T08:44:04.343Z,5.60
2023-04-17T08:49:07.512Z,4.90
2023-04-17T08:54:10.720Z,6.70
2023-04-17T08:59:14.391Z,5.50
2023-04-17T09:04:48.180Z,4.70
2023-04-17T09:09:56.421Z,4.20
2023-04-17T09:14:59.686Z,6.20
2023-04-17T09:20:12.333Z,5.30
2023-04-17T09:25:23.322Z,5.20
2023-04-17T09:30:27.353Z,5.00
2023-04-17T09:35:31.837Z,5.20
2023-04-17T09:40:41.687Z,3.70
2023-04-17T09:45:47.630Z,5.40
2023-04-17T09:50:51.577Z,5.30
2023-04-17T09:55:55.768Z,5.30
2023-04-17T10:00:59.331Z,5.60
2023-04-17T10:06:02.598Z,4.00
2023-04-17T10:11:08.832Z,4.70
2023-04-17T10:16:12.201Z,4.30
2023-04-17T10:21:24.932Z,5.60
2023-04-17T10:26:30.944Z,5.10
2023-04-17T10:32:16.734Z,5.30
2023-04-17T10:37:23.060Z,2.30
2023-04-17T10:42:27.015Z,4.70
2023-04-17T10:47:36.435Z,5.30
2023-04-17T10:52:44.930Z,3.80
2023-04-17T11:03:06.943Z,5.40
2023-04-17T11:08:11.785Z,5.80
2023-04-17T11:13:15.442Z,4.80
2023-04-17T11:18:22.472Z,6.10
2023-04-17T11:23:34.369Z,6.50
2023-04-17T11:28:37.873Z,5.70
2023-04-17T11:33:41.597Z,6.10
2023-04-17T11:38:48.803Z,5.90
2023-04-17T11:43:52.209Z,4.70
2023-04-17T11:48:55.521Z,9.00
2023-04-17T11:53:59.757Z,5.20
2023-04-17T11:59:05.311Z,8.70
2023-04-17T12:04:21.999Z,7.00
2023-04-17T12:09:29.684Z,6.10
2023-04-17T12:14:33.668Z,4.90
2023-04-17T12:19:36.917Z,5.30
2023-04-17T12:24:40.129Z,4.80
2023-04-17T12:29:44.875Z,5.60
2023-04-17T12:34:48.714Z,4.40
2023-04-17T12:39:52.395Z,5.40
2023-04-17T12:44:55.599Z,3.20
2023-04-17T12:49:58.609Z,3.10
2023-04-17T12:55:02.529Z,6.80
2023-04-17T13:00:07.466Z,4.40
2023-04-17T13:05:10.585Z,5.00
2023-04-17T13:10:13.788Z,4.60
2023-04-17T13:15:17.515Z,5.00
2023-04-17T13:20:20.729Z,5.10
2023-04-17T13:25:23.941Z,5.20
2023-04-17T13:30:27.248Z,7.10
2023-04-17T13:35:30.756Z,9.80
2023-04-17T13:40:33.897Z,19.30
2023-04-17T13:45:37.070Z,13.20
2023-04-17T13:50:40.274Z,19.20
2023-04-17T13:55:43.590Z,14.00
2023-04-17T14:00:47.006Z,9.30
2023-04-17T14:05:50.239Z,6.10
2023-04-17T14:10:53.316Z,7.60
2023-04-17T14:15:56.673Z,11.40
2023-04-17T14:20:59.862Z,10.20
2023-04-17T14:26:03.461Z,6.60
2023-04-17T14:31:07.436Z,13.10
2023-04-17T14:36:10.901Z,10.80
2023-04-17T14:41:14.041Z,6.70
2023-04-17T14:46:17.235Z,5.80
2023-04-17T14:51:20.328Z,5.80
2023-04-17T14:56:23.526Z,7.40
2023-04-17T15:01:26.578Z,7.40
2023-04-17T15:06:30.038Z,15.60
2023-04-17T15:11:33.162Z,12.60
2023-04-17T15:16:36.398Z,8.30
2023-04-17T15:21:39.571Z,8.60
2023-04-17T15:26:45.007Z,4.90
2023-04-17T15:31:48.613Z,6.20
2023-04-17T15:36:52.105Z,4.30
2023-04-17T15:41:56.696Z,4.70
2023-04-17T15:47:00.666Z,5.00
2023-04-17T15:52:03.764Z,14.50
2023-04-17T15:57:09.120Z,8.80
2023-04-17T16:02:15.511Z,6.10
2023-04-17T16:07:20.221Z,4.20
2023-04-17T16:12:23.294Z,3.20
2023-04-17T16:17:26.832Z,3.40
2023-04-17T16:22:30.976Z,11.30
2023-04-17T16:27:34.603Z,29.10
2023-04-17T16:33:10.607Z,4.00
2023-04-17T16:38:31.653Z,18.50
2023-04-17T16:43:39.754Z,4.70
2023-04-17T16:49:06.807Z,9.70
2023-04-17T16:54:28.475Z,4.30
2023-04-17T16:59:33.338Z,2.90
2023-04-17T17:04:36.539Z,5.30
2023-04-17T17:09:39.799Z,3.30
2023-04-17T17:14:43.106Z,3.90
2023-04-17T17:19:46.332Z,4.20
2023-04-17T17:24:49.426Z,3.30
2023-04-17T17:29:56.902Z,4.80
2023-04-17T17:35:01.017Z,3.70
2023-04-17T17:40:06.151Z,4.60
2023-04-17T17:45:10.308Z,7.70
2023-04-17T17:50:13.359Z,5.80
2023-04-17T17:55:16.796Z,5.20
2023-04-17T18:00:20.337Z,5.90
2023-04-17T18:05:24.767Z,4.80
2023-04-17T18:10:28.037Z,6.00
2023-04-17T18:15:31.917Z,6.10
2023-04-17T18:20:39.637Z,6.00
2023-04-17T18:25:42.781Z,5.30
2023-04-17T18:30:45.920Z,5.60
2023-04-17T18:35:49.792Z,5.70
2023-04-17T18:40:57.568Z,8.00
2023-04-17T18:46:04.971Z,9.60
2023-04-17T18:51:12.993Z,8.70
2023-04-17T18:56:17.199Z,7.70
2023-04-17T19:01:20.600Z,8.10
2023-04-17T19:06:23.912Z,6.40
2023-04-17T19:11:31.321Z,9.80
2023-04-17T19:16:34.638Z,9.00
2023-04-17T19:21:37.939Z,8.10
2023-04-17T19:26:41.845Z,11.10
2023-04-17T19:31:45.051Z,8.40
2023-04-17T19:36:48.292Z,11.50
2023-04-17T19:41:52.305Z,10.80
2023-04-17T19:46:56.936Z,8.20
2023-04-17T19:52:01.184Z,11.60
2023-04-17T19:57:04.813Z,10.20
2023-04-17T20:02:08.375Z,11.80
2023-04-17T20:07:11.626Z,8.70
2023-04-17T20:12:14.724Z,11.40
2023-04-17T20:17:18.104Z,14.30
2023-04-17T20:22:21.251Z,11.90
2023-04-17T20:27:24.462Z,12.50
2023-04-17T20:32:27.585Z,10.50
2023-04-17T20:37:30.774Z,12.40
2023-04-17T20:42:34.093Z,12.30
2023-04-17T20:47:43.516Z,11.20
2023-04-17T20:52:58.333Z,11.60
2023-04-17T20:58:01.459Z,10.80
2023-04-17T21:03:04.672Z,11.70
2023-04-17T21:08:07.844Z,12.80
2023-04-17T21:13:10.857Z,14.40
2023-04-17T21:18:13.954Z,9.40
2023-04-17T21:23:16.959Z,15.40
2023-04-17T21:28:20.480Z,13.30
2023-04-17T21:33:23.583Z,8.00
2023-04-17T21:38:27.527Z,14.00
2023-04-17T21:43:31.956Z,14.20
2023-04-17T21:48:34.956Z,14.60
2023-04-17T21:53:38.419Z,11.90
2023-04-17T21:58:41.580Z,12.60
2023-04-17T22:03:44.619Z,13.10
2023-04-17T22:08:47.705Z,14.20
2023-04-17T22:13:50.814Z,17.00
2023-04-17T22:18:54.513Z,13.50
2023-04-17T22:25:13.708Z,10.80
2023-04-17T22:31:32.874Z,10.60
2023-04-17T22:37:51.981Z,13.10
2023-04-17T22:44:11.036Z,12.50
2023-04-17T22:50:30.516Z,12.10
2023-04-17T22:56:49.453Z,12.80
2023-04-17T23:03:08.430Z,12.40
2023-04-17T23:09:20.980Z,15.00
2023-04-17T23:14:24.077Z,11.30
2023-04-17T23:19:27.920Z,13.80
2023-04-17T23:24:35.139Z,12.40
2023-04-17T23:29:38.201Z,15.70
2023-04-17T23:34:41.307Z,15.10
2023-04-17T23:39:44.524Z,12.50
2023-04-17T23:44:48.038Z,12.80
2023-04-17T23:49:51.374Z,10.40
2023-04-17T23:54:55.056Z,11.00
2023-04-17T23:59:58.077Z,12.90
